sensor_id;sensor_type;location;lat;lon;timestamp;P1;durP1;ratioP1;P2;durP2;ratioP2
33836;SDS011;20140;49.356;8.812;2023-07-28T00:02:03;4.03;;;3.03;;
33836;SDS011;20140;49.356;8.812;2023-07-28T00:14:35;4.15;;;3.53;;
33836;SDS011;20140;49.356;8.812;2023-07-28T00:17:01;6.83;;;3.30;;
33836;SDS011;20140;49.356;8.812;2023-07-28T00:19:26;4.10;;;3.15;;
33836;SDS011;20140;49.356;8.812;2023-07-28T00:21:52;3.43;;;3.13;;
33836;SDS011;20140;49.356;8.812;2023-07-28T00:24:18;4.15;;;3.25;;
33836;SDS011;20140;49.356;8.812;2023-07-28T00:26:44;3.85;;;3.17;;
33836;SDS011;20140;49.356;8.812;2023-07-28T00:29:09;4.28;;;2.80;;
33836;SDS011;20140;49.356;8.812;2023-07-28T00:31:35;3.95;;;3.50;;
33836;SDS011;20140;49.356;8.812;2023-07-28T00:34:01;3.77;;;3.30;;
33836;SDS011;20140;49.356;8.812;2023-07-28T00:36:27;3.80;;;3.35;;
33836;SDS011;20140;49.356;8.812;2023-07-28T00:45:19;6.77;;;3.27;;
33836;SDS011;20140;49.356;8.812;2023-07-28T00:47:45;4.35;;;3.15;;
33836;SDS011;20140;49.356;8.812;2023-07-28T00:50:11;6.47;;;3.35;;
33836;SDS011;20140;49.356;8.812;2023-07-28T00:52:37;5.35;;;3.10;;
33836;SDS011;20140;49.356;8.812;2023-07-28T00:55:03;6.88;;;3.22;;
33836;SDS011;20140;49.356;8.812;2023-07-28T00:57:30;4.10;;;3.40;;
33836;SDS011;20140;49.356;8.812;2023-07-28T00:59:56;4.93;;;3.38;;
33836;SDS011;20140;49.356;8.812;2023-07-28T01:02:21;3.87;;;3.30;;
33836;SDS011;20140;49.356;8.812;2023-07-28T01:04:47;6.45;;;4.30;;
33836;SDS011;20140;49.356;8.812;2023-07-28T01:07:15;6.70;;;3.63;;
33836;SDS011;20140;49.356;8.812;2023-07-28T01:12:22;4.18;;;3.13;;
33836;SDS011;20140;49.356;8.812;2023-07-28T01:14:49;4.20;;;3.47;;
33836;SDS011;20140;49.356;8.812;2023-07-28T01:28:33;7.15;;;4.88;;
33836;SDS011;20140;49.356;8.812;2023-07-28T01:31:01;5.47;;;4.22;;
33836;SDS011;20140;49.356;8.812;2023-07-28T01:33:27;4.78;;;4.10;;
33836;SDS011;20140;49.356;8.812;2023-07-28T01:35:53;6.63;;;4.07;;
33836;SDS011;20140;49.356;8.812;2023-07-28T01:38:19;4.83;;;4.33;;
33836;SDS011;20140;49.356;8.812;2023-07-28T01:40:46;5.88;;;4.72;;
33836;SDS011;20140;49.356;8.812;2023-07-28T01:43:11;6.32;;;4.57;;
33836;SDS011;20140;49.356;8.812;2023-07-28T01:45:37;4.75;;;4.20;;
33836;SDS011;20140;49.356;8.812;2023-07-28T01:48:03;4.30;;;3.87;;
33836;SDS011;20140;49.356;8.812;2023-07-28T01:50:29;5.53;;;4.45;;
33836;SDS011;20140;49.356;8.812;2023-07-28T01:52:55;4.53;;;3.83;;
33836;SDS011;20140;49.356;8.812;2023-07-28T01:55:20;6.47;;;4.32;;
33836;SDS011;20140;49.356;8.812;2023-07-28T01:57:50;4.93;;;4.43;;
33836;SDS011;20140;49.356;8.812;2023-07-28T02:00:19;4.72;;;3.95;;
33836;SDS011;20140;49.356;8.812;2023-07-28T02:02:46;5.35;;;3.55;;
33836;SDS011;20140;49.356;8.812;2023-07-28T02:05:12;3.93;;;3.53;;
33836;SDS011;20140;49.356;8.812;2023-07-28T02:07:37;4.63;;;4.10;;
33836;SDS011;20140;49.356;8.812;2023-07-28T02:10:03;5.03;;;4.53;;
33836;SDS011;20140;49.356;8.812;2023-07-28T02:12:29;4.68;;;4.15;;
33836;SDS011;20140;49.356;8.812;2023-07-28T02:14:54;3.70;;;3.40;;
33836;SDS011;20140;49.356;8.812;2023-07-28T02:17:22;4.28;;;3.38;;
33836;SDS011;20140;49.356;8.812;2023-07-28T02:19:48;5.43;;;4.20;;
33836;SDS011;20140;49.356;8.812;2023-07-28T02:22:13;5.23;;;2.97;;
33836;SDS011;20140;49.356;8.812;2023-07-28T02:24:39;5.80;;;3.47;;
33836;SDS011;20140;49.356;8.812;2023-07-28T02:27:04;5.47;;;3.60;;
33836;SDS011;20140;49.356;8.812;2023-07-28T02:29:30;4.50;;;4.10;;
33836;SDS011;20140;49.356;8.812;2023-07-28T02:31:55;5.10;;;3.60;;
33836;SDS011;20140;49.356;8.812;2023-07-28T02:34:21;5.97;;;4.43;;
33836;SDS011;20140;49.356;8.812;2023-07-28T02:36:47;4.30;;;3.20;;
33836;SDS011;20140;49.356;8.812;2023-07-28T02:39:12;5.93;;;2.93;;
33836;SDS011;20140;49.356;8.812;2023-07-28T02:41:38;4.43;;;3.80;;
33836;SDS011;20140;49.356;8.812;2023-07-28T02:44:03;3.78;;;3.30;;
33836;SDS011;20140;49.356;8.812;2023-07-28T02:46:29;5.87;;;4.17;;
33836;SDS011;20140;49.356;8.812;2023-07-28T02:48:55;4.20;;;3.73;;
33836;SDS011;20140;49.356;8.812;2023-07-28T02:51:20;5.18;;;3.60;;
33836;SDS011;20140;49.356;8.812;2023-07-28T02:53:46;7.03;;;3.80;;
33836;SDS011;20140;49.356;8.812;2023-07-28T02:56:11;7.70;;;3.90;;
33836;SDS011;20140;49.356;8.812;2023-07-28T02:58:37;5.17;;;4.00;;
33836;SDS011;20140;49.356;8.812;2023-07-28T03:01:02;3.83;;;3.40;;
33836;SDS011;20140;49.356;8.812;2023-07-28T03:03:28;5.60;;;3.73;;
33836;SDS011;20140;49.356;8.812;2023-07-28T03:05:53;6.82;;;3.20;;
33836;SDS011;20140;49.356;8.812;2023-07-28T03:08:19;5.90;;;4.03;;
33836;SDS011;20140;49.356;8.812;2023-07-28T03:10:45;7.90;;;4.40;;
33836;SDS011;20140;49.356;8.812;2023-07-28T03:13:11;4.27;;;3.67;;
33836;SDS011;20140;49.356;8.812;2023-07-28T03:15:36;4.57;;;3.87;;
33836;SDS011;20140;49.356;8.812;2023-07-28T03:18:02;5.40;;;3.53;;
33836;SDS011;20140;49.356;8.812;2023-07-28T03:20:29;5.47;;;4.00;;
33836;SDS011;20140;49.356;8.812;2023-07-28T03:22:55;4.72;;;3.20;;
33836;SDS011;20140;49.356;8.812;2023-07-28T03:25:21;6.72;;;4.38;;
33836;SDS011;20140;49.356;8.812;2023-07-28T03:27:46;3.57;;;3.20;;
33836;SDS011;20140;49.356;8.812;2023-07-28T03:30:12;7.07;;;3.58;;
33836;SDS011;20140;49.356;8.812;2023-07-28T03:32:39;6.83;;;4.40;;
33836;SDS011;20140;49.356;8.812;2023-07-28T03:35:04;6.10;;;4.43;;
33836;SDS011;20140;49.356;8.812;2023-07-28T03:37:31;4.13;;;3.75;;
33836;SDS011;20140;49.356;8.812;2023-07-28T03:39:57;5.10;;;4.07;;
33836;SDS011;20140;49.356;8.812;2023-07-28T03:42:22;5.27;;;4.07;;
33836;SDS011;20140;49.356;8.812;2023-07-28T03:44:48;7.70;;;4.30;;
33836;SDS011;20140;49.356;8.812;2023-07-28T03:47:14;5.53;;;4.47;;
33836;SDS011;20140;49.356;8.812;2023-07-28T03:49:42;6.70;;;4.03;;
33836;SDS011;20140;49.356;8.812;2023-07-28T03:52:07;7.88;;;4.68;;
33836;SDS011;20140;49.356;8.812;2023-07-28T03:54:33;4.67;;;4.20;;
33836;SDS011;20140;49.356;8.812;2023-07-28T03:56:58;6.93;;;4.65;;
33836;SDS011;20140;49.356;8.812;2023-07-28T03:59:24;6.60;;;4.70;;
33836;SDS011;20140;49.356;8.812;2023-07-28T04:01:49;6.60;;;4.70;;
33836;SDS011;20140;49.356;8.812;2023-07-28T04:04:15;6.30;;;4.70;;
33836;SDS011;20140;49.356;8.812;2023-07-28T04:06:44;5.77;;;4.73;;
33836;SDS011;20140;49.356;8.812;2023-07-28T04:09:12;8.23;;;4.80;;
33836;SDS011;20140;49.356;8.812;2023-07-28T04:11:39;5.85;;;4.75;;
33836;SDS011;20140;49.356;8.812;2023-07-28T04:14:04;6.97;;;5.23;;
33836;SDS011;20140;49.356;8.812;2023-07-28T04:16:30;9.18;;;5.43;;
33836;SDS011;20140;49.356;8.812;2023-07-28T04:18:56;7.60;;;5.28;;
33836;SDS011;20140;49.356;8.812;2023-07-28T04:21:22;7.43;;;4.30;;
33836;SDS011;20140;49.356;8.812;2023-07-28T04:23:47;7.13;;;5.43;;
33836;SDS011;20140;49.356;8.812;2023-07-28T04:26:13;6.80;;;4.97;;
33836;SDS011;20140;49.356;8.812;2023-07-28T04:28:38;7.18;;;4.40;;
33836;SDS011;20140;49.356;8.812;2023-07-28T04:31:04;7.77;;;5.00;;
33836;SDS011;20140;49.356;8.812;2023-07-28T04:33:30;7.93;;;4.95;;
33836;SDS011;20140;49.356;8.812;2023-07-28T04:35:55;7.35;;;5.07;;
33836;SDS011;20140;49.356;8.812;2023-07-28T04:38:21;4.87;;;4.43;;
33836;SDS011;20140;49.356;8.812;2023-07-28T04:40:46;6.15;;;4.88;;
33836;SDS011;20140;49.356;8.812;2023-07-28T04:43:12;6.80;;;4.77;;
33836;SDS011;20140;49.356;8.812;2023-07-28T04:45:37;9.75;;;5.13;;
33836;SDS011;20140;49.356;8.812;2023-07-28T04:48:03;5.47;;;4.93;;
33836;SDS011;20140;49.356;8.812;2023-07-28T04:50:29;7.47;;;5.53;;
33836;SDS011;20140;49.356;8.812;2023-07-28T04:52:54;8.63;;;5.05;;
33836;SDS011;20140;49.356;8.812;2023-07-28T04:55:20;8.60;;;4.83;;
33836;SDS011;20140;49.356;8.812;2023-07-28T04:57:45;5.87;;;4.67;;
33836;SDS011;20140;49.356;8.812;2023-07-28T05:00:11;6.20;;;5.18;;
33836;SDS011;20140;49.356;8.812;2023-07-28T05:02:37;5.88;;;4.75;;
33836;SDS011;20140;49.356;8.812;2023-07-28T05:05:03;7.97;;;4.73;;
33836;SDS011;20140;49.356;8.812;2023-07-28T05:07:28;4.23;;;3.83;;
33836;SDS011;20140;49.356;8.812;2023-07-28T05:09:54;4.80;;;4.25;;
33836;SDS011;20140;49.356;8.812;2023-07-28T05:12:19;6.70;;;3.57;;
33836;SDS011;20140;49.356;8.812;2023-07-28T05:14:45;3.77;;;3.10;;
33836;SDS011;20140;49.356;8.812;2023-07-28T05:17:11;7.03;;;3.20;;
33836;SDS011;20140;49.356;8.812;2023-07-28T05:19:36;4.57;;;3.50;;
33836;SDS011;20140;49.356;8.812;2023-07-28T05:22:02;8.97;;;4.10;;
33836;SDS011;20140;49.356;8.812;2023-07-28T05:24:28;4.95;;;4.35;;
33836;SDS011;20140;49.356;8.812;2023-07-28T05:26:53;6.67;;;3.80;;
33836;SDS011;20140;49.356;8.812;2023-07-28T05:36:03;4.68;;;3.40;;
33836;SDS011;20140;49.356;8.812;2023-07-28T05:38:29;3.70;;;3.00;;
33836;SDS011;20140;49.356;8.812;2023-07-28T05:40:58;3.25;;;2.72;;
33836;SDS011;20140;49.356;8.812;2023-07-28T05:43:26;2.67;;;2.45;;
33836;SDS011;20140;49.356;8.812;2023-07-28T05:45:52;3.87;;;2.10;;
33836;SDS011;20140;49.356;8.812;2023-07-28T05:48:18;2.10;;;1.90;;
33836;SDS011;20140;49.356;8.812;2023-07-28T05:50:43;3.00;;;2.70;;
33836;SDS011;20140;49.356;8.812;2023-07-28T05:53:09;3.40;;;2.20;;
33836;SDS011;20140;49.356;8.812;2023-07-28T05:55:34;3.13;;;2.35;;
33836;SDS011;20140;49.356;8.812;2023-07-28T05:58:00;3.30;;;2.13;;
33836;SDS011;20140;49.356;8.812;2023-07-28T06:00:25;2.30;;;1.90;;
33836;SDS011;20140;49.356;8.812;2023-07-28T06:02:51;1.93;;;1.73;;
33836;SDS011;20140;49.356;8.812;2023-07-28T06:05:17;1.80;;;1.40;;
33836;SDS011;20140;49.356;8.812;2023-07-28T06:07:43;2.23;;;2.03;;
33836;SDS011;20140;49.356;8.812;2023-07-28T06:10:08;3.00;;;1.70;;
33836;SDS011;20140;49.356;8.812;2023-07-28T06:12:34;1.80;;;1.70;;
33836;SDS011;20140;49.356;8.812;2023-07-28T06:14:59;3.28;;;1.65;;
33836;SDS011;20140;49.356;8.812;2023-07-28T06:17:25;2.40;;;2.00;;
33836;SDS011;20140;49.356;8.812;2023-07-28T06:19:52;3.33;;;2.65;;
33836;SDS011;20140;49.356;8.812;2023-07-28T06:22:17;3.00;;;2.70;;
33836;SDS011;20140;49.356;8.812;2023-07-28T06:24:43;4.70;;;3.03;;
33836;SDS011;20140;49.356;8.812;2023-07-28T06:27:08;4.87;;;3.37;;
33836;SDS011;20140;49.356;8.812;2023-07-28T06:29:35;4.43;;;3.07;;
33836;SDS011;20140;49.356;8.812;2023-07-28T06:32:00;3.73;;;3.20;;
33836;SDS011;20140;49.356;8.812;2023-07-28T06:34:26;4.47;;;2.88;;
33836;SDS011;20140;49.356;8.812;2023-07-28T06:36:52;3.47;;;3.10;;
33836;SDS011;20140;49.356;8.812;2023-07-28T06:39:17;3.27;;;2.97;;
33836;SDS011;20140;49.356;8.812;2023-07-28T06:41:43;4.05;;;3.67;;
33836;SDS011;20140;49.356;8.812;2023-07-28T06:44:09;4.97;;;3.97;;
33836;SDS011;20140;49.356;8.812;2023-07-28T06:46:35;5.55;;;3.55;;
33836;SDS011;20140;49.356;8.812;2023-07-28T06:49:00;4.20;;;3.80;;
33836;SDS011;20140;49.356;8.812;2023-07-28T06:51:26;4.82;;;3.60;;
33836;SDS011;20140;49.356;8.812;2023-07-28T06:53:54;3.73;;;3.33;;
33836;SDS011;20140;49.356;8.812;2023-07-28T06:56:19;5.13;;;3.55;;
33836;SDS011;20140;49.356;8.812;2023-07-28T06:58:45;4.60;;;3.80;;
33836;SDS011;20140;49.356;8.812;2023-07-28T07:01:10;3.80;;;3.40;;
33836;SDS011;20140;49.356;8.812;2023-07-28T07:03:36;3.55;;;3.25;;
33836;SDS011;20140;49.356;8.812;2023-07-28T07:06:02;5.78;;;3.53;;
33836;SDS011;20140;49.356;8.812;2023-07-28T07:08:28;4.20;;;3.80;;
33836;SDS011;20140;49.356;8.812;2023-07-28T07:10:53;4.87;;;3.63;;
33836;SDS011;20140;49.356;8.812;2023-07-28T07:13:19;4.97;;;3.55;;
33836;SDS011;20140;49.356;8.812;2023-07-28T07:15:45;3.80;;;3.50;;
33836;SDS011;20140;49.356;8.812;2023-07-28T07:18:10;4.40;;;3.33;;
33836;SDS011;20140;49.356;8.812;2023-07-28T07:20:36;3.92;;;2.80;;
33836;SDS011;20140;49.356;8.812;2023-07-28T07:23:03;2.88;;;2.58;;
33836;SDS011;20140;49.356;8.812;2023-07-28T07:25:30;2.80;;;2.42;;
33836;SDS011;20140;49.356;8.812;2023-07-28T07:27:55;6.38;;;3.05;;
33836;SDS011;20140;49.356;8.812;2023-07-28T07:30:21;3.08;;;2.17;;
33836;SDS011;20140;49.356;8.812;2023-07-28T07:32:47;2.90;;;2.45;;
33836;SDS011;20140;49.356;8.812;2023-07-28T07:35:13;4.60;;;2.93;;
33836;SDS011;20140;49.356;8.812;2023-07-28T07:37:38;2.80;;;2.47;;
33836;SDS011;20140;49.356;8.812;2023-07-28T07:40:05;3.53;;;2.85;;
33836;SDS011;20140;49.356;8.812;2023-07-28T07:42:48;2.90;;;2.60;;
33836;SDS011;20140;49.356;8.812;2023-07-28T07:45:14;3.55;;;2.50;;
33836;SDS011;20140;49.356;8.812;2023-07-28T07:47:40;3.17;;;2.83;;
33836;SDS011;20140;49.356;8.812;2023-07-28T07:50:07;3.72;;;3.15;;
33836;SDS011;20140;49.356;8.812;2023-07-28T07:52:36;2.80;;;2.55;;
33836;SDS011;20140;49.356;8.812;2023-07-28T07:55:02;4.13;;;3.03;;
33836;SDS011;20140;49.356;8.812;2023-07-28T07:57:28;3.38;;;3.08;;
33836;SDS011;20140;49.356;8.812;2023-07-28T07:59:54;3.03;;;2.65;;
33836;SDS011;20140;49.356;8.812;2023-07-28T08:02:22;3.67;;;2.67;;
33836;SDS011;20140;49.356;8.812;2023-07-28T08:04:47;3.90;;;2.80;;
33836;SDS011;20140;49.356;8.812;2023-07-28T08:07:13;3.07;;;2.30;;
33836;SDS011;20140;49.356;8.812;2023-07-28T08:09:41;2.15;;;1.95;;
33836;SDS011;20140;49.356;8.812;2023-07-28T08:12:06;2.75;;;2.38;;
33836;SDS011;20140;49.356;8.812;2023-07-28T08:14:33;2.05;;;1.85;;
33836;SDS011;20140;49.356;8.812;2023-07-28T08:16:59;2.25;;;1.85;;
33836;SDS011;20140;49.356;8.812;2023-07-28T08:19:24;3.45;;;2.45;;
33836;SDS011;20140;49.356;8.812;2023-07-28T08:21:50;2.93;;;2.63;;
33836;SDS011;20140;49.356;8.812;2023-07-28T08:24:16;3.13;;;2.83;;
33836;SDS011;20140;49.356;8.812;2023-07-28T08:26:42;3.53;;;2.92;;
33836;SDS011;20140;49.356;8.812;2023-07-28T08:29:07;3.17;;;2.40;;
33836;SDS011;20140;49.356;8.812;2023-07-28T08:31:33;3.17;;;2.63;;
33836;SDS011;20140;49.356;8.812;2023-07-28T08:33:58;2.90;;;2.60;;
33836;SDS011;20140;49.356;8.812;2023-07-28T08:36:24;3.77;;;2.83;;
33836;SDS011;20140;49.356;8.812;2023-07-28T08:38:49;3.80;;;2.83;;
33836;SDS011;20140;49.356;8.812;2023-07-28T08:41:15;3.67;;;2.60;;
33836;SDS011;20140;49.356;8.812;2023-07-28T08:43:40;4.50;;;2.67;;
33836;SDS011;20140;49.356;8.812;2023-07-28T08:46:06;3.30;;;2.53;;
33836;SDS011;20140;49.356;8.812;2023-07-28T08:48:32;3.65;;;3.03;;
33836;SDS011;20140;49.356;8.812;2023-07-28T08:50:58;3.70;;;2.87;;
33836;SDS011;20140;49.356;8.812;2023-07-28T08:53:24;3.93;;;2.23;;
33836;SDS011;20140;49.356;8.812;2023-07-28T08:55:50;2.88;;;2.45;;
33836;SDS011;20140;49.356;8.812;2023-07-28T08:58:23;2.78;;;2.55;;
33836;SDS011;20140;49.356;8.812;2023-07-28T09:03:35;3.25;;;2.25;;
33836;SDS011;20140;49.356;8.812;2023-07-28T09:06:06;2.65;;;2.42;;
33836;SDS011;20140;49.356;8.812;2023-07-28T09:08:33;3.63;;;2.40;;
33836;SDS011;20140;49.356;8.812;2023-07-28T09:11:04;2.72;;;2.28;;
33836;SDS011;20140;49.356;8.812;2023-07-28T09:13:35;2.95;;;2.17;;
33836;SDS011;20140;49.356;8.812;2023-07-28T09:16:08;2.53;;;2.22;;
33836;SDS011;20140;49.356;8.812;2023-07-28T09:18:44;3.38;;;2.83;;
33836;SDS011;20140;49.356;8.812;2023-07-28T09:21:20;2.35;;;2.00;;
33836;SDS011;20140;49.356;8.812;2023-07-28T09:23:49;4.43;;;2.00;;
33836;SDS011;20140;49.356;8.812;2023-07-28T09:26:15;2.88;;;2.20;;
33836;SDS011;20140;49.356;8.812;2023-07-28T09:28:41;2.65;;;2.10;;
33836;SDS011;20140;49.356;8.812;2023-07-28T09:31:07;3.85;;;1.88;;
33836;SDS011;20140;49.356;8.812;2023-07-28T09:33:33;3.47;;;1.98;;
33836;SDS011;20140;49.356;8.812;2023-07-28T09:36:07;2.40;;;2.00;;
33836;SDS011;20140;49.356;8.812;2023-07-28T09:38:37;2.00;;;1.80;;
33836;SDS011;20140;49.356;8.812;2023-07-28T09:41:07;3.88;;;2.30;;
33836;SDS011;20140;49.356;8.812;2023-07-28T09:43:38;1.70;;;1.52;;
33836;SDS011;20140;49.356;8.812;2023-07-28T09:46:07;2.33;;;2.10;;
33836;SDS011;20140;49.356;8.812;2023-07-28T09:48:33;4.45;;;2.15;;
33836;SDS011;20140;49.356;8.812;2023-07-28T09:51:11;1.85;;;1.50;;
33836;SDS011;20140;49.356;8.812;2023-07-28T09:53:40;2.72;;;1.55;;
33836;SDS011;20140;49.356;8.812;2023-07-28T09:56:14;3.45;;;1.80;;
33836;SDS011;20140;49.356;8.812;2023-07-28T09:58:44;2.35;;;1.63;;
33836;SDS011;20140;49.356;8.812;2023-07-28T10:01:15;2.60;;;2.05;;
33836;SDS011;20140;49.356;8.812;2023-07-28T10:03:41;2.20;;;1.70;;
33836;SDS011;20140;49.356;8.812;2023-07-28T10:06:07;1.73;;;1.33;;
33836;SDS011;20140;49.356;8.812;2023-07-28T10:08:33;1.63;;;1.52;;
33836;SDS011;20140;49.356;8.812;2023-07-28T10:11:01;3.20;;;1.50;;
33836;SDS011;20140;49.356;8.812;2023-07-28T10:13:33;2.22;;;1.45;;
33836;SDS011;20140;49.356;8.812;2023-07-28T10:16:07;2.10;;;1.60;;
33836;SDS011;20140;49.356;8.812;2023-07-28T10:18:34;2.38;;;1.58;;
33836;SDS011;20140;49.356;8.812;2023-07-28T10:21:04;2.22;;;1.75;;
33836;SDS011;20140;49.356;8.812;2023-07-28T10:23:32;2.28;;;2.03;;
33836;SDS011;20140;49.356;8.812;2023-07-28T10:26:02;2.85;;;2.05;;
33836;SDS011;20140;49.356;8.812;2023-07-28T10:28:34;2.65;;;1.75;;
33836;SDS011;20140;49.356;8.812;2023-07-28T10:31:06;2.70;;;1.77;;
33836;SDS011;20140;49.356;8.812;2023-07-28T10:33:40;1.88;;;1.73;;
33836;SDS011;20140;49.356;8.812;2023-07-28T10:36:17;2.20;;;1.90;;
33836;SDS011;20140;49.356;8.812;2023-07-28T10:38:46;2.50;;;1.77;;
33836;SDS011;20140;49.356;8.812;2023-07-28T10:41:25;1.98;;;1.75;;
33836;SDS011;20140;49.356;8.812;2023-07-28T10:43:50;2.20;;;2.00;;
33836;SDS011;20140;49.356;8.812;2023-07-28T10:46:17;2.80;;;1.98;;
33836;SDS011;20140;49.356;8.812;2023-07-28T10:48:44;3.10;;;1.77;;
33836;SDS011;20140;49.356;8.812;2023-07-28T10:51:29;2.30;;;2.05;;
33836;SDS011;20140;49.356;8.812;2023-07-28T10:53:59;2.47;;;2.03;;
33836;SDS011;20140;49.356;8.812;2023-07-28T10:56:27;3.28;;;2.30;;
33836;SDS011;20140;49.356;8.812;2023-07-28T10:58:56;6.10;;;2.50;;
33836;SDS011;20140;49.356;8.812;2023-07-28T11:01:36;2.47;;;1.98;;
33836;SDS011;20140;49.356;8.812;2023-07-28T11:04:13;2.10;;;1.83;;
33836;SDS011;20140;49.356;8.812;2023-07-28T11:06:41;3.30;;;1.90;;
33836;SDS011;20140;49.356;8.812;2023-07-28T11:09:08;2.47;;;2.10;;
33836;SDS011;20140;49.356;8.812;2023-07-28T11:11:35;2.72;;;2.00;;
33836;SDS011;20140;49.356;8.812;2023-07-28T11:14:07;2.28;;;1.80;;
33836;SDS011;20140;49.356;8.812;2023-07-28T11:16:34;1.90;;;1.80;;
33836;SDS011;20140;49.356;8.812;2023-07-28T11:19:02;2.47;;;1.80;;
33836;SDS011;20140;49.356;8.812;2023-07-28T11:21:28;1.60;;;1.50;;
33836;SDS011;20140;49.356;8.812;2023-07-28T11:23:54;2.85;;;1.77;;
33836;SDS011;20140;49.356;8.812;2023-07-28T11:26:22;1.65;;;1.55;;
33836;SDS011;20140;49.356;8.812;2023-07-28T11:28:48;1.98;;;1.73;;
33836;SDS011;20140;49.356;8.812;2023-07-28T11:31:14;2.45;;;1.85;;
33836;SDS011;20140;49.356;8.812;2023-07-28T11:33:39;2.10;;;1.57;;
33836;SDS011;20140;49.356;8.812;2023-07-28T11:36:05;3.33;;;1.48;;
33836;SDS011;20140;49.356;8.812;2023-07-28T11:38:31;4.30;;;1.70;;
33836;SDS011;20140;49.356;8.812;2023-07-28T11:41:00;2.30;;;1.50;;
33836;SDS011;20140;49.356;8.812;2023-07-28T11:43:27;1.73;;;1.20;;
33836;SDS011;20140;49.356;8.812;2023-07-28T11:45:55;2.10;;;1.58;;
33836;SDS011;20140;49.356;8.812;2023-07-28T11:48:21;2.00;;;1.80;;
33836;SDS011;20140;49.356;8.812;2023-07-28T11:50:46;3.37;;;2.03;;
33836;SDS011;20140;49.356;8.812;2023-07-28T11:53:12;2.30;;;1.73;;
33836;SDS011;20140;49.356;8.812;2023-07-28T11:55:39;2.95;;;2.45;;
33836;SDS011;20140;49.356;8.812;2023-07-28T11:58:06;3.03;;;1.92;;
33836;SDS011;20140;49.356;8.812;2023-07-28T12:00:36;2.73;;;2.30;;
33836;SDS011;20140;49.356;8.812;2023-07-28T12:05:36;3.00;;;1.90;;
33836;SDS011;20140;49.356;8.812;2023-07-28T12:08:03;2.85;;;1.85;;
33836;SDS011;20140;49.356;8.812;2023-07-28T12:10:29;2.50;;;1.75;;
33836;SDS011;20140;49.356;8.812;2023-07-28T12:12:56;4.72;;;1.55;;
33836;SDS011;20140;49.356;8.812;2023-07-28T12:15:25;1.50;;;1.40;;
33836;SDS011;20140;49.356;8.812;2023-07-28T12:20:34;1.83;;;1.27;;
33836;SDS011;20140;49.356;8.812;2023-07-28T12:23:04;1.90;;;1.42;;
33836;SDS011;20140;49.356;8.812;2023-07-28T12:25:30;1.90;;;1.65;;
33836;SDS011;20140;49.356;8.812;2023-07-28T12:27:56;2.00;;;1.60;;
33836;SDS011;20140;49.356;8.812;2023-07-28T12:30:22;1.77;;;1.67;;
33836;SDS011;20140;49.356;8.812;2023-07-28T12:32:47;1.57;;;1.30;;
33836;SDS011;20140;49.356;8.812;2023-07-28T12:35:15;3.28;;;1.23;;
33836;SDS011;20140;49.356;8.812;2023-07-28T12:37:41;1.73;;;1.63;;
33836;SDS011;20140;49.356;8.812;2023-07-28T12:40:07;1.50;;;1.27;;
33836;SDS011;20140;49.356;8.812;2023-07-28T12:42:33;2.00;;;1.70;;
33836;SDS011;20140;49.356;8.812;2023-07-28T12:44:59;2.10;;;1.80;;
33836;SDS011;20140;49.356;8.812;2023-07-28T12:47:24;2.10;;;1.50;;
33836;SDS011;20140;49.356;8.812;2023-07-28T12:49:50;1.80;;;1.58;;
33836;SDS011;20140;49.356;8.812;2023-07-28T12:52:15;1.87;;;1.50;;
33836;SDS011;20140;49.356;8.812;2023-07-28T12:58:03;2.03;;;1.58;;
33836;SDS011;20140;49.356;8.812;2023-07-28T13:13:39;3.05;;;1.98;;
33836;SDS011;20140;49.356;8.812;2023-07-28T13:23:04;2.00;;;1.80;;
33836;SDS011;20140;49.356;8.812;2023-07-28T13:42:11;2.55;;;2.35;;
33836;SDS011;20140;49.356;8.812;2023-07-28T13:47:59;5.65;;;2.28;;
33836;SDS011;20140;49.356;8.812;2023-07-28T13:50:24;3.85;;;2.35;;
33836;SDS011;20140;49.356;8.812;2023-07-28T13:52:50;2.50;;;2.07;;
33836;SDS011;20140;49.356;8.812;2023-07-28T13:55:15;2.45;;;2.13;;
33836;SDS011;20140;49.356;8.812;2023-07-28T13:57:41;2.17;;;1.70;;
33836;SDS011;20140;49.356;8.812;2023-07-28T14:00:06;2.88;;;1.60;;
33836;SDS011;20140;49.356;8.812;2023-07-28T14:02:35;2.50;;;1.90;;
33836;SDS011;20140;49.356;8.812;2023-07-28T14:05:01;4.15;;;1.92;;
33836;SDS011;20140;49.356;8.812;2023-07-28T14:07:27;2.17;;;1.88;;
33836;SDS011;20140;49.356;8.812;2023-07-28T14:09:53;3.97;;;2.23;;
33836;SDS011;20140;49.356;8.812;2023-07-28T14:12:18;5.35;;;2.15;;
33836;SDS011;20140;49.356;8.812;2023-07-28T14:14:44;4.53;;;1.97;;
33836;SDS011;20140;49.356;8.812;2023-07-28T14:17:09;2.67;;;1.92;;
33836;SDS011;20140;49.356;8.812;2023-07-28T14:19:38;2.37;;;1.87;;
33836;SDS011;20140;49.356;8.812;2023-07-28T14:22:05;2.47;;;2.00;;
33836;SDS011;20140;49.356;8.812;2023-07-28T14:24:30;2.58;;;1.95;;
33836;SDS011;20140;49.356;8.812;2023-07-28T14:26:56;3.33;;;1.90;;
33836;SDS011;20140;49.356;8.812;2023-07-28T14:29:22;3.00;;;2.15;;
33836;SDS011;20140;49.356;8.812;2023-07-28T14:31:47;5.03;;;2.17;;
33836;SDS011;20140;49.356;8.812;2023-07-28T14:34:13;2.70;;;1.90;;
33836;SDS011;20140;49.356;8.812;2023-07-28T14:36:39;4.07;;;1.92;;
33836;SDS011;20140;49.356;8.812;2023-07-28T14:39:05;2.20;;;1.95;;
33836;SDS011;20140;49.356;8.812;2023-07-28T14:41:31;2.60;;;1.90;;
33836;SDS011;20140;49.356;8.812;2023-07-28T14:43:56;3.20;;;2.33;;
33836;SDS011;20140;49.356;8.812;2023-07-28T14:46:22;2.60;;;2.13;;
33836;SDS011;20140;49.356;8.812;2023-07-28T14:48:49;2.50;;;2.30;;
33836;SDS011;20140;49.356;8.812;2023-07-28T14:51:15;3.08;;;2.35;;
33836;SDS011;20140;49.356;8.812;2023-07-28T14:53:41;2.33;;;1.80;;
33836;SDS011;20140;49.356;8.812;2023-07-28T14:56:07;3.87;;;2.27;;
33836;SDS011;20140;49.356;8.812;2023-07-28T14:58:32;3.47;;;2.28;;
33836;SDS011;20140;49.356;8.812;2023-07-28T15:00:58;3.42;;;2.10;;
33836;SDS011;20140;49.356;8.812;2023-07-28T15:03:25;2.42;;;2.17;;
33836;SDS011;20140;49.356;8.812;2023-07-28T15:05:52;2.65;;;2.20;;
33836;SDS011;20140;49.356;8.812;2023-07-28T15:08:21;3.22;;;2.60;;
33836;SDS011;20140;49.356;8.812;2023-07-28T15:10:47;3.03;;;2.38;;
33836;SDS011;20140;49.356;8.812;2023-07-28T15:13:13;4.63;;;3.17;;
33836;SDS011;20140;49.356;8.812;2023-07-28T15:15:38;3.30;;;2.50;;
33836;SDS011;20140;49.356;8.812;2023-07-28T15:18:04;4.28;;;2.30;;
33836;SDS011;20140;49.356;8.812;2023-07-28T15:20:30;3.63;;;2.47;;
33836;SDS011;20140;49.356;8.812;2023-07-28T15:22:56;2.83;;;2.28;;
33836;SDS011;20140;49.356;8.812;2023-07-28T15:25:21;3.93;;;3.03;;
33836;SDS011;20140;49.356;8.812;2023-07-28T15:27:47;3.17;;;2.33;;
33836;SDS011;20140;49.356;8.812;2023-07-28T15:30:12;3.60;;;2.70;;
33836;SDS011;20140;49.356;8.812;2023-07-28T15:32:38;4.53;;;2.80;;
33836;SDS011;20140;49.356;8.812;2023-07-28T15:35:03;2.53;;;2.30;;
33836;SDS011;20140;49.356;8.812;2023-07-28T15:37:29;2.95;;;2.63;;
33836;SDS011;20140;49.356;8.812;2023-07-28T15:39:55;3.23;;;2.47;;
33836;SDS011;20140;49.356;8.812;2023-07-28T15:42:21;4.93;;;3.10;;
33836;SDS011;20140;49.356;8.812;2023-07-28T15:44:47;4.77;;;2.50;;
33836;SDS011;20140;49.356;8.812;2023-07-28T15:47:14;2.88;;;2.53;;
33836;SDS011;20140;49.356;8.812;2023-07-28T15:49:40;4.35;;;2.78;;
33836;SDS011;20140;49.356;8.812;2023-07-28T15:52:06;2.95;;;2.55;;
33836;SDS011;20140;49.356;8.812;2023-07-28T15:54:32;3.60;;;2.65;;
33836;SDS011;20140;49.356;8.812;2023-07-28T15:56:57;6.13;;;2.90;;
33836;SDS011;20140;49.356;8.812;2023-07-28T15:59:23;4.30;;;2.10;;
33836;SDS011;20140;49.356;8.812;2023-07-28T16:01:48;5.00;;;2.20;;
33836;SDS011;20140;49.356;8.812;2023-07-28T16:04:14;2.55;;;2.05;;
33836;SDS011;20140;49.356;8.812;2023-07-28T16:06:39;4.00;;;2.60;;
33836;SDS011;20140;49.356;8.812;2023-07-28T16:09:05;2.75;;;2.40;;
33836;SDS011;20140;49.356;8.812;2023-07-28T16:11:31;2.80;;;2.43;;
33836;SDS011;20140;49.356;8.812;2023-07-28T16:13:57;4.38;;;2.45;;